sensor_id;sensor_type;location;lat;lon;timestamp;temperature;humidity
54946;DHT22;40846;44.788;20.486;2022-10-20T00:01:13;333.70;2329.60
54946;DHT22;40846;44.788;20.486;2022-10-20T00:03:39;333.60;2329.60
54946;DHT22;40846;44.788;20.486;2022-10-20T00:06:30;333.50;2329.60
54946;DHT22;40846;44.788;20.486;2022-10-20T00:08:58;333.50;2329.60
54946;DHT22;40846;44.788;20.486;2022-10-20T00:11:25;333.40;2329.60
54946;DHT22;40846;44.788;20.486;2022-10-20T00:13:53;333.60;2329.60
54946;DHT22;40846;44.788;20.486;2022-10-20T00:16:20;333.60;2329.60
54946;DHT22;40846;44.788;20.486;2022-10-20T00:18:46;333.70;2329.60
54946;DHT22;40846;44.788;20.486;2022-10-20T00:21:21;333.60;2329.60
54946;DHT22;40846;44.788;20.486;2022-10-20T00:23:47;333.70;2329.60
54946;DHT22;40846;44.788;20.486;2022-10-20T00:26:19;333.50;2329.60
54946;DHT22;40846;44.788;20.486;2022-10-20T00:28:46;333.50;2329.60
54946;DHT22;40846;44.788;20.486;2022-10-20T00:31:13;333.40;2329.60
54946;DHT22;40846;44.788;20.486;2022-10-20T00:33:39;333.50;2329.60
54946;DHT22;40846;44.788;20.486;2022-10-20T00:36:07;333.40;2329.60
54946;DHT22;40846;44.788;20.486;2022-10-20T00:38:34;333.40;2329.60
54946;DHT22;40846;44.788;20.486;2022-10-20T00:41:02;333.40;2329.60
54946;DHT22;40846;44.788;20.486;2022-10-20T00:43:50;333.30;2329.60
54946;DHT22;40846;44.788;20.486;2022-10-20T00:46:19;333.30;2329.60
54946;DHT22;40846;44.788;20.486;2022-10-20T00:48:55;333.40;2329.60
54946;DHT22;40846;44.788;20.486;2022-10-20T00:51:26;333.20;2329.60
54946;DHT22;40846;44.788;20.486;2022-10-20T00:53:57;333.20;2329.60
54946;DHT22;40846;44.788;20.486;2022-10-20T00:56:24;333.30;2329.60
54946;DHT22;40846;44.788;20.486;2022-10-20T00:58:51;333.00;2329.60
54946;DHT22;40846;44.788;20.486;2022-10-20T01:01:17;333.10;2329.60
54946;DHT22;40846;44.788;20.486;2022-10-20T01:03:47;333.10;2329.60
54946;DHT22;40846;44.788;20.486;2022-10-20T01:08:40;333.10;2329.60
54946;DHT22;40846;44.788;20.486;2022-10-20T01:11:18;333.10;2329.60
54946;DHT22;40846;44.788;20.486;2022-10-20T01:14:10;333.10;2329.60
54946;DHT22;40846;44.788;20.486;2022-10-20T01:22:31;332.90;2329.60
54946;DHT22;40846;44.788;20.486;2022-10-20T01:27:54;332.80;2329.60
54946;DHT22;40846;44.788;20.486;2022-10-20T01:30:23;308.00;2304.00
54946;DHT22;40846;44.788;20.486;2022-10-20T01:36:12;308.10;2304.00
54946;DHT22;40846;44.788;20.486;2022-10-20T01:43:38;308.10;2304.00
54946;DHT22;40846;44.788;20.486;2022-10-20T01:46:08;308.10;2304.00
54946;DHT22;40846;44.788;20.486;2022-10-20T01:48:35;308.10;2304.00
54946;DHT22;40846;44.788;20.486;2022-10-20T01:51:03;332.80;2329.60
54946;DHT22;40846;44.788;20.486;2022-10-20T01:53:29;332.80;2329.60
54946;DHT22;40846;44.788;20.486;2022-10-20T01:55:56;332.80;2329.60
54946;DHT22;40846;44.788;20.486;2022-10-20T01:58:40;332.80;2329.60
54946;DHT22;40846;44.788;20.486;2022-10-20T02:04:04;308.00;2304.00
54946;DHT22;40846;44.788;20.486;2022-10-20T02:07:07;308.00;2304.00
54946;DHT22;40846;44.788;20.486;2022-10-20T02:09:42;308.00;2304.00
54946;DHT22;40846;44.788;20.486;2022-10-20T02:12:16;307.90;2304.00
54946;DHT22;40846;44.788;20.486;2022-10-20T02:14:45;307.90;2304.00
54946;DHT22;40846;44.788;20.486;2022-10-20T02:17:14;307.80;2304.00
54946;DHT22;40846;44.788;20.486;2022-10-20T02:19:43;307.80;2304.00
54946;DHT22;40846;44.788;20.486;2022-10-20T02:22:12;307.80;2304.00
54946;DHT22;40846;44.788;20.486;2022-10-20T02:27:25;307.90;2304.00
54946;DHT22;40846;44.788;20.486;2022-10-20T02:30:05;307.80;2304.00
54946;DHT22;40846;44.788;20.486;2022-10-20T02:32:37;308.00;2304.00
54946;DHT22;40846;44.788;20.486;2022-10-20T02:37:34;308.00;2304.00
54946;DHT22;40846;44.788;20.486;2022-10-20T02:40:00;307.60;2304.00
54946;DHT22;40846;44.788;20.486;2022-10-20T02:42:26;307.50;2304.00
54946;DHT22;40846;44.788;20.486;2022-10-20T02:44:52;307.60;2304.00
54946;DHT22;40846;44.788;20.486;2022-10-20T02:47:20;307.50;2304.00
54946;DHT22;40846;44.788;20.486;2022-10-20T02:49:47;282.50;2278.40
54946;DHT22;40846;44.788;20.486;2022-10-20T02:52:12;307.20;2304.00
54946;DHT22;40846;44.788;20.486;2022-10-20T02:54:38;307.30;2304.00
54946;DHT22;40846;44.788;20.486;2022-10-20T02:57:04;282.50;2278.40
54946;DHT22;40846;44.788;20.486;2022-10-20T02:59:30;307.20;2304.00
54946;DHT22;40846;44.788;20.486;2022-10-20T03:01:56;307.20;2304.00
54946;DHT22;40846;44.788;20.486;2022-10-20T03:04:21;282.50;2278.40
54946;DHT22;40846;44.788;20.486;2022-10-20T03:06:47;282.40;2278.40
54946;DHT22;40846;44.788;20.486;2022-10-20T03:09:13;282.40;2278.40
54946;DHT22;40846;44.788;20.486;2022-10-20T03:11:39;282.50;2278.40
54946;DHT22;40846;44.788;20.486;2022-10-20T03:14:04;282.40;2278.40
54946;DHT22;40846;44.788;20.486;2022-10-20T03:16:30;282.30;2278.40
54946;DHT22;40846;44.788;20.486;2022-10-20T03:18:56;282.40;2278.40
54946;DHT22;40846;44.788;20.486;2022-10-20T03:21:22;282.30;2278.40
54946;DHT22;40846;44.788;20.486;2022-10-20T03:23:48;282.30;2278.40
54946;DHT22;40846;44.788;20.486;2022-10-20T03:26:13;282.20;2278.40
54946;DHT22;40846;44.788;20.486;2022-10-20T03:28:39;282.30;2278.40
54946;DHT22;40846;44.788;20.486;2022-10-20T03:31:06;282.20;2278.40
54946;DHT22;40846;44.788;20.486;2022-10-20T03:33:32;282.20;2278.40
54946;DHT22;40846;44.788;20.486;2022-10-20T03:35:59;282.20;2278.40
54946;DHT22;40846;44.788;20.486;2022-10-20T03:38:25;282.30;2278.40
54946;DHT22;40846;44.788;20.486;2022-10-20T03:40:50;282.30;2278.40
54946;DHT22;40846;44.788;20.486;2022-10-20T03:43:16;282.20;2278.40
54946;DHT22;40846;44.788;20.486;2022-10-20T03:45:43;282.20;2278.40
54946;DHT22;40846;44.788;20.486;2022-10-20T03:48:10;282.10;2278.40
54946;DHT22;40846;44.788;20.486;2022-10-20T03:50:40;282.00;2278.40
54946;DHT22;40846;44.788;20.486;2022-10-20T03:53:07;281.90;2278.40
54946;DHT22;40846;44.788;20.486;2022-10-20T03:55:36;282.00;2278.40
54946;DHT22;40846;44.788;20.486;2022-10-20T03:58:02;281.90;2278.40
54946;DHT22;40846;44.788;20.486;2022-10-20T04:00:28;282.00;2278.40
54946;DHT22;40846;44.788;20.486;2022-10-20T04:02:54;281.90;2278.40
54946;DHT22;40846;44.788;20.486;2022-10-20T04:05:20;282.00;2278.40
54946;DHT22;40846;44.788;20.486;2022-10-20T04:07:46;282.00;2278.40
54946;DHT22;40846;44.788;20.486;2022-10-20T04:10:13;281.90;2278.40
54946;DHT22;40846;44.788;20.486;2022-10-20T04:12:40;281.90;2278.40
54946;DHT22;40846;44.788;20.486;2022-10-20T04:15:07;281.80;2278.40
54946;DHT22;40846;44.788;20.486;2022-10-20T04:17:33;281.90;2278.40
54946;DHT22;40846;44.788;20.486;2022-10-20T04:19:59;282.00;2278.40
54946;DHT22;40846;44.788;20.486;2022-10-20T04:22:25;282.10;2278.40
54946;DHT22;40846;44.788;20.486;2022-10-20T04:24:50;282.10;2278.40
54946;DHT22;40846;44.788;20.486;2022-10-20T04:27:16;281.90;2278.40
54946;DHT22;40846;44.788;20.486;2022-10-20T04:29:42;281.90;2278.40
54946;DHT22;40846;44.788;20.486;2022-10-20T04:32:08;281.70;2278.40
54946;DHT22;40846;44.788;20.486;2022-10-20T04:34:33;281.60;2278.40
54946;DHT22;40846;44.788;20.486;2022-10-20T04:37:00;281.60;2278.40
54946;DHT22;40846;44.788;20.486;2022-10-20T04:39:26;281.60;2278.40
54946;DHT22;40846;44.788;20.486;2022-10-20T04:41:52;281.70;2278.40
54946;DHT22;40846;44.788;20.486;2022-10-20T04:44:18;281.60;2278.40
54946;DHT22;40846;44.788;20.486;2022-10-20T04:46:44;281.70;2278.40
54946;DHT22;40846;44.788;20.486;2022-10-20T04:49:10;281.60;2278.40
54946;DHT22;40846;44.788;20.486;2022-10-20T04:51:36;256.90;2252.80
54946;DHT22;40846;44.788;20.486;2022-10-20T04:54:01;256.90;2252.80
54946;DHT22;40846;44.788;20.486;2022-10-20T04:56:27;256.90;2252.80
54946;DHT22;40846;44.788;20.486;2022-10-20T04:58:55;256.80;2252.80
54946;DHT22;40846;44.788;20.486;2022-10-20T05:01:25;256.70;2252.80
54946;DHT22;40846;44.788;20.486;2022-10-20T05:03:52;256.70;2252.80
54946;DHT22;40846;44.788;20.486;2022-10-20T05:06:23;256.60;2252.80
54946;DHT22;40846;44.788;20.486;2022-10-20T05:08:50;256.80;2252.80
54946;DHT22;40846;44.788;20.486;2022-10-20T05:11:17;256.90;2252.80
54946;DHT22;40846;44.788;20.486;2022-10-20T05:13:44;256.70;2252.80
54946;DHT22;40846;44.788;20.486;2022-10-20T05:16:10;256.60;2252.80
54946;DHT22;40846;44.788;20.486;2022-10-20T05:18:37;256.50;2252.80
54946;DHT22;40846;44.788;20.486;2022-10-20T05:21:08;256.50;2252.80
54946;DHT22;40846;44.788;20.486;2022-10-20T05:23:34;256.40;2252.80
54946;DHT22;40846;44.788;20.486;2022-10-20T05:26:05;256.40;2252.80
54946;DHT22;40846;44.788;20.486;2022-10-20T05:28:31;256.30;2252.80
54946;DHT22;40846;44.788;20.486;2022-10-20T05:31:04;256.30;2252.80
54946;DHT22;40846;44.788;20.486;2022-10-20T05:33:30;256.30;2252.80
54946;DHT22;40846;44.788;20.486;2022-10-20T05:35:56;256.10;2252.80
54946;DHT22;40846;44.788;20.486;2022-10-20T05:38:22;256.10;2252.80
54946;DHT22;40846;44.788;20.486;2022-10-20T05:40:48;256.10;2252.80
54946;DHT22;40846;44.788;20.486;2022-10-20T05:43:14;256.00;2252.80
54946;DHT22;40846;44.788;20.486;2022-10-20T05:45:39;256.10;2252.80
54946;DHT22;40846;44.788;20.486;2022-10-20T05:48:05;231.30;2252.80
54946;DHT22;40846;44.788;20.486;2022-10-20T05:50:32;231.10;2252.80
54946;DHT22;40846;44.788;20.486;2022-10-20T05:52:58;231.20;2252.80
54946;DHT22;40846;44.788;20.486;2022-10-20T05:55:24;231.20;2252.80
54946;DHT22;40846;44.788;20.486;2022-10-20T05:57:50;231.30;2252.80
54946;DHT22;40846;44.788;20.486;2022-10-20T06:00:18;231.30;2252.80
54946;DHT22;40846;44.788;20.486;2022-10-20T06:02:54;231.30;2252.80
54946;DHT22;40846;44.788;20.486;2022-10-20T06:05:20;256.00;2252.80
54946;DHT22;40846;44.788;20.486;2022-10-20T06:07:46;231.30;2252.80
54946;DHT22;40846;44.788;20.486;2022-10-20T06:10:11;231.20;2252.80
54946;DHT22;40846;44.788;20.486;2022-10-20T06:12:40;231.10;2252.80
54946;DHT22;40846;44.788;20.486;2022-10-20T06:15:09;231.10;2252.80
54946;DHT22;40846;44.788;20.486;2022-10-20T06:17:38;231.30;2252.80
54946;DHT22;40846;44.788;20.486;2022-10-20T06:20:04;256.00;2252.80
54946;DHT22;40846;44.788;20.486;2022-10-20T06:22:30;256.00;2252.80
54946;DHT22;40846;44.788;20.486;2022-10-20T06:24:55;231.30;2252.80
54946;DHT22;40846;44.788;20.486;2022-10-20T06:27:24;231.20;2252.80
54946;DHT22;40846;44.788;20.486;2022-10-20T06:29:50;256.10;2252.80
54946;DHT22;40846;44.788;20.486;2022-10-20T06:32:16;256.00;2252.80
54946;DHT22;40846;44.788;20.486;2022-10-20T06:34:42;256.10;2252.80
54946;DHT22;40846;44.788;20.486;2022-10-20T06:37:09;256.10;2252.80
54946;DHT22;40846;44.788;20.486;2022-10-20T06:39:35;256.20;2252.80
54946;DHT22;40846;44.788;20.486;2022-10-20T06:42:01;256.20;2252.80
54946;DHT22;40846;44.788;20.486;2022-10-20T06:44:28;256.20;2252.80
54946;DHT22;40846;44.788;20.486;2022-10-20T06:46:54;256.40;2252.80
54946;DHT22;40846;44.788;20.486;2022-10-20T06:49:20;256.30;2252.80
54946;DHT22;40846;44.788;20.486;2022-10-20T06:51:46;256.40;2252.80
54946;DHT22;40846;44.788;20.486;2022-10-20T06:54:11;256.20;2252.80
54946;DHT22;40846;44.788;20.486;2022-10-20T06:56:38;256.50;2252.80
54946;DHT22;40846;44.788;20.486;2022-10-20T06:59:04;256.60;2252.80
54946;DHT22;40846;44.788;20.486;2022-10-20T07:01:31;256.70;2252.80
54946;DHT22;40846;44.788;20.486;2022-10-20T07:04:03;256.90;2252.80
54946;DHT22;40846;44.788;20.486;2022-10-20T07:06:35;281.70;2278.40
54946;DHT22;40846;44.788;20.486;2022-10-20T07:09:02;281.70;2278.40
54946;DHT22;40846;44.788;20.486;2022-10-20T07:11:30;281.70;2278.40
54946;DHT22;40846;44.788;20.486;2022-10-20T07:14:00;281.60;2278.40
54946;DHT22;40846;44.788;20.486;2022-10-20T07:16:28;256.90;2252.80
54946;DHT22;40846;44.788;20.486;2022-10-20T07:18:54;281.60;2278.40
54946;DHT22;40846;44.788;20.486;2022-10-20T07:21:24;256.80;2252.80
54946;DHT22;40846;44.788;20.486;2022-10-20T07:23:52;281.60;2278.40
54946;DHT22;40846;44.788;20.486;2022-10-20T07:33:47;281.90;2278.40
54946;DHT22;40846;44.788;20.486;2022-10-20T07:36:25;281.90;2278.40
54946;DHT22;40846;44.788;20.486;2022-10-20T07:38:53;281.90;2278.40
54946;DHT22;40846;44.788;20.486;2022-10-20T07:41:19;282.00;2278.40
54946;DHT22;40846;44.788;20.486;2022-10-20T07:43:45;282.30;2278.40
54946;DHT22;40846;44.788;20.486;2022-10-20T07:46:12;307.30;2304.00
54946;DHT22;40846;44.788;20.486;2022-10-20T07:53:40;333.20;2329.60
54946;DHT22;40846;44.788;20.486;2022-10-20T07:58:32;358.70;2329.60
54946;DHT22;40846;44.788;20.486;2022-10-20T08:00:58;358.70;2329.60
54946;DHT22;40846;44.788;20.486;2022-10-20T08:03:24;359.20;2329.60
54946;DHT22;40846;44.788;20.486;2022-10-20T08:05:49;384.30;2329.60
54946;DHT22;40846;44.788;20.486;2022-10-20T08:08:15;384.70;2329.60
54946;DHT22;40846;44.788;20.486;2022-10-20T08:10:41;409.90;2355.20
54946;DHT22;40846;44.788;20.486;2022-10-20T08:13:07;410.30;2355.20
54946;DHT22;40846;44.788;20.486;2022-10-20T08:15:32;435.30;2355.20
54946;DHT22;40846;44.788;20.486;2022-10-20T08:17:58;435.50;2355.20
54946;DHT22;40846;44.788;20.486;2022-10-20T08:20:24;435.80;2355.20
54946;DHT22;40846;44.788;20.486;2022-10-20T08:22:49;461.00;2380.80
54946;DHT22;40846;44.788;20.486;2022-10-20T08:25:16;461.20;2380.80
54946;DHT22;40846;44.788;20.486;2022-10-20T08:27:41;486.60;2380.80
54946;DHT22;40846;44.788;20.486;2022-10-20T08:32:34;487.00;2278.40
54946;DHT22;40846;44.788;20.486;2022-10-20T08:35:00;487.10;2278.40
54946;DHT22;40846;44.788;20.486;2022-10-20T08:37:29;512.10;2252.80
54946;DHT22;40846;44.788;20.486;2022-10-20T08:39:54;512.50;2201.60
54946;DHT22;40846;44.788;20.486;2022-10-20T08:42:20;537.70;2150.40
54946;DHT22;40846;44.788;20.486;2022-10-20T08:44:47;538.00;2099.20
54946;DHT22;40846;44.788;20.486;2022-10-20T08:49:48;538.50;1971.20
54946;DHT22;40846;44.788;20.486;2022-10-20T08:52:14;563.60;1920.00
54946;DHT22;40846;44.788;20.486;2022-10-20T08:54:41;564.10;1868.80
54946;DHT22;40846;44.788;20.486;2022-10-20T08:59:52;589.50;1740.80
54946;DHT22;40846;44.788;20.486;2022-10-20T09:02:18;614.50;1689.60
54946;DHT22;40846;44.788;20.486;2022-10-20T09:04:59;614.70;1638.40
54946;DHT22;40846;44.788;20.486;2022-10-20T09:07:32;615.00;1587.20
54946;DHT22;40846;44.788;20.486;2022-10-20T09:13:05;640.20;1536.00
54946;DHT22;40846;44.788;20.486;2022-10-20T09:15:31;615.20;1536.00
54946;DHT22;40846;44.788;20.486;2022-10-20T09:18:08;615.30;1536.00
54946;DHT22;40846;44.788;20.486;2022-10-20T09:20:54;615.10;1536.00
54946;DHT22;40846;44.788;20.486;2022-10-20T09:23:30;614.50;1561.60
54946;DHT22;40846;44.788;20.486;2022-10-20T09:25:56;614.60;1561.60
54946;DHT22;40846;44.788;20.486;2022-10-20T09:28:26;614.70;1561.60
54946;DHT22;40846;44.788;20.486;2022-10-20T09:30:53;614.70;1536.00
54946;DHT22;40846;44.788;20.486;2022-10-20T09:35:48;615.00;1510.40
54946;DHT22;40846;44.788;20.486;2022-10-20T09:38:20;614.90;1536.00
54946;DHT22;40846;44.788;20.486;2022-10-20T09:43:25;614.40;1561.60
54946;DHT22;40846;44.788;20.486;2022-10-20T09:45:55;589.60;1587.20
54946;DHT22;40846;44.788;20.486;2022-10-20T09:50:59;588.80;1612.80
54946;DHT22;40846;44.788;20.486;2022-10-20T09:53:36;563.40;1689.60
54946;DHT22;40846;44.788;20.486;2022-10-20T09:56:05;537.80;1740.80
54946;DHT22;40846;44.788;20.486;2022-10-20T09:58:33;512.90;1766.40
54946;DHT22;40846;44.788;20.486;2022-10-20T10:03:44;512.20;1817.60
54946;DHT22;40846;44.788;20.486;2022-10-20T10:06:42;487.00;1920.00
54946;DHT22;40846;44.788;20.486;2022-10-20T10:09:30;486.40;1996.80
54946;DHT22;40846;44.788;20.486;2022-10-20T10:14:26;460.80;2176.00
54946;DHT22;40846;44.788;20.486;2022-10-20T10:16:52;436.10;2304.00
54946;DHT22;40846;44.788;20.486;2022-10-20T10:19:24;436.10;2355.20
54946;DHT22;40846;44.788;20.486;2022-10-20T10:21:54;435.80;2355.20
54946;DHT22;40846;44.788;20.486;2022-10-20T10:27:27;435.40;2355.20
54946;DHT22;40846;44.788;20.486;2022-10-20T10:29:53;410.40;2355.20
54946;DHT22;40846;44.788;20.486;2022-10-20T11:06:55;384.70;2329.60
54946;DHT22;40846;44.788;20.486;2022-10-20T18:01:16;359.30;2329.60
54946;DHT22;40846;44.788;20.486;2022-10-20T18:03:43;359.10;2329.60
54946;DHT22;40846;44.788;20.486;2022-10-20T18:06:14;358.90;2329.60
54946;DHT22;40846;44.788;20.486;2022-10-20T18:08:41;358.90;2329.60
54946;DHT22;40846;44.788;20.486;2022-10-20T18:11:18;358.90;2329.60
54946;DHT22;40846;44.788;20.486;2022-10-20T18:13:44;358.90;2329.60
54946;DHT22;40846;44.788;20.486;2022-10-20T18:16:16;358.80;2329.60
54946;DHT22;40846;44.788;20.486;2022-10-20T18:18:43;358.80;2329.60
54946;DHT22;40846;44.788;20.486;2022-10-20T18:21:10;358.60;2329.60
54946;DHT22;40846;44.788;20.486;2022-10-20T18:23:37;358.50;2329.60
54946;DHT22;40846;44.788;20.486;2022-10-20T18:26:10;358.50;2329.60
54946;DHT22;40846;44.788;20.486;2022-10-20T18:28:36;358.50;2329.60
54946;DHT22;40846;44.788;20.486;2022-10-20T18:31:07;358.50;2329.60
54946;DHT22;40846;44.788;20.486;2022-10-20T18:33:34;358.50;2329.60
54946;DHT22;40846;44.788;20.486;2022-10-20T18:36:08;358.50;2329.60
54946;DHT22;40846;44.788;20.486;2022-10-20T18:38:36;358.50;2329.60
54946;DHT22;40846;44.788;20.486;2022-10-20T18:41:07;358.50;2329.60
54946;DHT22;40846;44.788;20.486;2022-10-20T18:43:33;358.50;2329.60
54946;DHT22;40846;44.788;20.486;2022-10-20T18:45:59;358.40;2329.60
54946;DHT22;40846;44.788;20.486;2022-10-20T18:48:26;358.40;2329.60
54946;DHT22;40846;44.788;20.486;2022-10-20T18:50:56;358.40;2329.60
54946;DHT22;40846;44.788;20.486;2022-10-20T18:53:23;333.60;2329.60
54946;DHT22;40846;44.788;20.486;2022-10-20T18:58:29;333.50;2329.60
54946;DHT22;40846;44.788;20.486;2022-10-20T19:01:09;333.60;2329.60
54946;DHT22;40846;44.788;20.486;2022-10-20T19:03:35;333.40;2329.60
54946;DHT22;40846;44.788;20.486;2022-10-20T19:06:04;333.40;2329.60
54946;DHT22;40846;44.788;20.486;2022-10-20T19:08:35;333.40;2329.60
54946;DHT22;40846;44.788;20.486;2022-10-20T19:11:02;333.40;2329.60
54946;DHT22;40846;44.788;20.486;2022-10-20T19:13:30;333.30;2329.60
54946;DHT22;40846;44.788;20.486;2022-10-20T19:15:56;333.40;2329.60
54946;DHT22;40846;44.788;20.486;2022-10-20T19:18:24;333.30;2329.60
54946;DHT22;40846;44.788;20.486;2022-10-20T19:20:57;333.30;2329.60
54946;DHT22;40846;44.788;20.486;2022-10-20T19:23:23;333.30;2329.60
54946;DHT22;40846;44.788;20.486;2022-10-20T19:28:30;333.10;2329.60
54946;DHT22;40846;44.788;20.486;2022-10-20T19:30:56;332.90;2329.60
54946;DHT22;40846;44.788;20.486;2022-10-20T19:33:21;332.90;2329.60
54946;DHT22;40846;44.788;20.486;2022-10-20T19:35:48;332.90;2329.60
54946;DHT22;40846;44.788;20.486;2022-10-20T19:38:16;308.10;2304.00
54946;DHT22;40846;44.788;20.486;2022-10-20T19:40:42;308.00;2304.00
54946;DHT22;40846;44.788;20.486;2022-10-20T19:43:08;307.80;2304.00
54946;DHT22;40846;44.788;20.486;2022-10-20T19:45:34;307.70;2304.00
54946;DHT22;40846;44.788;20.486;2022-10-20T19:48:00;307.60;2304.00
54946;DHT22;40846;44.788;20.486;2022-10-20T19:50:26;307.60;2304.00
54946;DHT22;40846;44.788;20.486;2022-10-20T19:52:52;307.60;2304.00
54946;DHT22;40846;44.788;20.486;2022-10-20T19:55:23;307.50;2304.00
54946;DHT22;40846;44.788;20.486;2022-10-20T19:57:54;307.50;2304.00
54946;DHT22;40846;44.788;20.486;2022-10-20T20:00:27;307.40;2304.00
54946;DHT22;40846;44.788;20.486;2022-10-20T20:02:57;307.20;2304.00
54946;DHT22;40846;44.788;20.486;2022-10-20T20:05:29;282.40;2278.40
54946;DHT22;40846;44.788;20.486;2022-10-20T20:07:57;282.40;2278.40
54946;DHT22;40846;44.788;20.486;2022-10-20T20:10:23;282.50;2278.40
54946;DHT22;40846;44.788;20.486;2022-10-20T20:12:49;282.40;2278.40
54946;DHT22;40846;44.788;20.486;2022-10-20T20:15:16;282.40;2278.40
54946;DHT22;40846;44.788;20.486;2022-10-20T20:17:52;282.30;2278.40
54946;DHT22;40846;44.788;20.486;2022-10-20T20:20:22;282.10;2278.40
54946;DHT22;40846;44.788;20.486;2022-10-20T20:22:48;282.10;2278.40
54946;DHT22;40846;44.788;20.486;2022-10-20T20:25:14;282.10;2278.40
54946;DHT22;40846;44.788;20.486;2022-10-20T20:27:41;282.20;2278.40
54946;DHT22;40846;44.788;20.486;2022-10-20T20:30:07;282.10;2278.40
54946;DHT22;40846;44.788;20.486;2022-10-20T20:32:33;282.00;2278.40
54946;DHT22;40846;44.788;20.486;2022-10-20T20:35:11;281.90;2278.40
54946;DHT22;40846;44.788;20.486;2022-10-20T20:37:38;281.70;2278.40
54946;DHT22;40846;44.788;20.486;2022-10-20T20:40:04;281.80;2278.40
54946;DHT22;40846;44.788;20.486;2022-10-20T20:42:30;281.70;2278.40
54946;DHT22;40846;44.788;20.486;2022-10-20T20:47:34;281.70;2278.40
54946;DHT22;40846;44.788;20.486;2022-10-20T20:52:36;281.90;2278.40
54946;DHT22;40846;44.788;20.486;2022-10-20T20:55:02;281.70;2278.40
54946;DHT22;40846;44.788;20.486;2022-10-20T20:57:31;281.90;2278.40
54946;DHT22;40846;44.788;20.486;2022-10-20T21:02:26;281.80;2278.40
54946;DHT22;40846;44.788;20.486;2022-10-20T21:07:31;282.00;2278.40
54946;DHT22;40846;44.788;20.486;2022-10-20T21:12:43;281.90;2278.40
54946;DHT22;40846;44.788;20.486;2022-10-20T21:15:12;281.90;2278.40
54946;DHT22;40846;44.788;20.486;2022-10-20T21:17:41;282.00;2278.40
54946;DHT22;40846;44.788;20.486;2022-10-20T21:20:09;282.00;2278.40
54946;DHT22;40846;44.788;20.486;2022-10-20T21:22:35;282.10;2278.40
54946;DHT22;40846;44.788;20.486;2022-10-20T21:25:07;282.10;2278.40
54946;DHT22;40846;44.788;20.486;2022-10-20T21:27:32;282.00;2278.40
54946;DHT22;40846;44.788;20.486;2022-10-20T21:29:58;282.10;2278.40
54946;DHT22;40846;44.788;20.486;2022-10-20T21:32:24;282.10;2278.40
54946;DHT22;40846;44.788;20.486;2022-10-20T21:34:50;282.00;2278.40
54946;DHT22;40846;44.788;20.486;2022-10-20T21:37:16;282.00;2278.40
54946;DHT22;40846;44.788;20.486;2022-10-20T21:39:42;282.00;2278.40
54946;DHT22;40846;44.788;20.486;2022-10-20T21:42:07;282.00;2278.40
54946;DHT22;40846;44.788;20.486;2022-10-20T21:44:33;281.90;2278.40
54946;DHT22;40846;44.788;20.486;2022-10-20T21:46:59;281.90;2278.40
54946;DHT22;40846;44.788;20.486;2022-10-20T21:49:24;281.90;2278.40
54946;DHT22;40846;44.788;20.486;2022-10-20T21:51:55;281.70;2278.40
54946;DHT22;40846;44.788;20.486;2022-10-20T21:54:23;281.80;2278.40
54946;DHT22;40846;44.788;20.486;2022-10-20T21:56:49;281.90;2278.40
54946;DHT22;40846;44.788;20.486;2022-10-20T21:59:16;281.90;2278.40
54946;DHT22;40846;44.788;20.486;2022-10-20T22:01:43;281.80;2278.40
54946;DHT22;40846;44.788;20.486;2022-10-20T22:04:08;281.80;2278.40
54946;DHT22;40846;44.788;20.486;2022-10-20T22:06:35;281.90;2278.40
54946;DHT22;40846;44.788;20.486;2022-10-20T22:09:01;281.90;2278.40
54946;DHT22;40846;44.788;20.486;2022-10-20T22:11:30;281.90;2278.40
54946;DHT22;40846;44.788;20.486;2022-10-20T22:13:56;281.80;2278.40
54946;DHT22;40846;44.788;20.486;2022-10-20T22:16:31;281.80;2278.40
54946;DHT22;40846;44.788;20.486;2022-10-20T22:19:00;281.80;2278.40
54946;DHT22;40846;44.788;20.486;2022-10-20T22:21:27;281.80;2278.40
54946;DHT22;40846;44.788;20.486;2022-10-20T22:23:55;281.70;2278.40
54946;DHT22;40846;44.788;20.486;2022-10-20T22:26:23;281.70;2278.40
54946;DHT22;40846;44.788;20.486;2022-10-20T22:28:50;281.70;2278.40
54946;DHT22;40846;44.788;20.486;2022-10-20T22:31:16;281.70;2278.40
54946;DHT22;40846;44.788;20.486;2022-10-20T22:33:42;281.70;2278.40
54946;DHT22;40846;44.788;20.486;2022-10-20T22:36:08;281.60;2278.40
54946;DHT22;40846;44.788;20.486;2022-10-20T22:38:33;281.60;2278.40
54946;DHT22;40846;44.788;20.486;2022-10-20T22:41:00;281.60;2278.40
54946;DHT22;40846;44.788;20.486;2022-10-20T22:43:27;281.60;2278.40
54946;DHT22;40846;44.788;20.486;2022-10-20T22:45:53;281.60;2278.40
54946;DHT22;40846;44.788;20.486;2022-10-20T22:48:20;281.60;2278.40
54946;DHT22;40846;44.788;20.486;2022-10-20T22:50:45;281.60;2278.40
54946;DHT22;40846;44.788;20.486;2022-10-20T22:53:11;256.90;2252.80
54946;DHT22;40846;44.788;20.486;2022-10-20T22:55:37;256.90;2252.80
54946;DHT22;40846;44.788;20.486;2022-10-20T22:58:03;256.90;2252.80
54946;DHT22;40846;44.788;20.486;2022-10-20T23:00:29;256.60;2252.80
54946;DHT22;40846;44.788;20.486;2022-10-20T23:02:55;256.80;2252.80
54946;DHT22;40846;44.788;20.486;2022-10-20T23:05:21;256.90;2252.80
54946;DHT22;40846;44.788;20.486;2022-10-20T23:07:46;256.80;2252.80
54946;DHT22;40846;44.788;20.486;2022-10-20T23:10:12;256.90;2252.80
54946;DHT22;40846;44.788;20.486;2022-10-20T23:12:38;281.60;2278.40
54946;DHT22;40846;44.788;20.486;2022-10-20T23:15:05;281.60;2278.40
54946;DHT22;40846;44.788;20.486;2022-10-20T23:17:31;281.70;2278.40
54946;DHT22;40846;44.788;20.486;2022-10-20T23:19:57;281.80;2278.40
54946;DHT22;40846;44.788;20.486;2022-10-20T23:22:23;281.80;2278.40
54946;DHT22;40846;44.788;20.486;2022-10-20T23:24:49;281.80;2278.40
54946;DHT22;40846;44.788;20.486;2022-10-20T23:27:14;281.80;2278.40
54946;DHT22;40846;44.788;20.486;2022-10-20T23:29:40;281.80;2278.40
54946;DHT22;40846;44.788;20.486;2022-10-20T23:32:06;281.70;2278.40
54946;DHT22;40846;44.788;20.486;2022-10-20T23:34:31;281.70;2278.40